createdAt,value
2023-01-15T00:01:39.856Z,70.47
2023-01-15T00:04:10.727Z,70.63
2023-01-15T00:06:43.811Z,70.69
2023-01-15T00:09:17.632Z,70.88
2023-01-15T00:11:47.687Z,70.63
2023-01-15T00:14:17.559Z,70.61
2023-01-15T00:16:47.758Z,70.61
2023-01-15T00:19:18.135Z,70.54
2023-01-15T00:21:48.210Z,70.86
2023-01-15T00:24:36.283Z,70.80
2023-01-15T00:27:24.832Z,70.70
2023-01-15T00:29:54.980Z,70.82
2023-01-15T00:32:25.003Z,70.84
2023-01-15T00:34:56.969Z,70.73
2023-01-15T00:37:26.978Z,70.71
2023-01-15T00:39:56.832Z,70.59
2023-01-15T00:42:26.992Z,70.56
2023-01-15T00:44:57.951Z,70.24
2023-01-15T00:47:28.471Z,69.89
2023-01-15T00:49:58.538Z,69.52
2023-01-15T00:52:28.443Z,69.58
2023-01-15T00:54:58.387Z,69.55
2023-01-15T00:57:28.343Z,68.83
2023-01-15T00:59:58.198Z,68.88
2023-01-15T01:02:28.576Z,68.61
2023-01-15T01:04:58.746Z,68.45
2023-01-15T01:07:28.919Z,68.11
2023-01-15T01:09:58.904Z,67.70
2023-01-15T01:12:28.863Z,67.75
2023-01-15T01:14:58.714Z,67.33
2023-01-15T01:17:28.685Z,67.18
2023-01-15T01:19:58.908Z,67.31
2023-01-15T01:22:31.201Z,67.35
2023-01-15T01:25:01.536Z,67.38
2023-01-15T01:27:31.619Z,67.11
2023-01-15T01:30:01.770Z,67.11
2023-01-15T01:32:31.635Z,66.98
2023-01-15T01:35:01.532Z,66.97
2023-01-15T01:37:31.573Z,66.75
2023-01-15T01:40:01.424Z,66.32
2023-01-15T01:42:31.536Z,66.30
2023-01-15T01:45:06.452Z,66.26
2023-01-15T01:47:37.856Z,65.80
2023-01-15T01:50:12.888Z,65.54
2023-01-15T01:52:51.790Z,65.71
2023-01-15T01:55:24.780Z,65.94
2023-01-15T01:58:01.181Z,65.64
2023-01-15T02:00:32.348Z,65.87
2023-01-15T02:03:04.558Z,65.86
2023-01-15T02:05:38.282Z,65.30
2023-01-15T02:08:09.575Z,65.55
2023-01-15T02:10:39.727Z,65.44
2023-01-15T02:13:34.951Z,65.24
2023-01-15T02:16:19.770Z,65.26
2023-01-15T02:19:14.511Z,64.98
2023-01-15T02:22:06.110Z,65.02
2023-01-15T02:25:02.356Z,65.04
2023-01-15T02:27:33.385Z,64.74
2023-01-15T02:30:15.226Z,64.83
2023-01-15T02:32:59.141Z,64.51
2023-01-15T02:35:33.057Z,64.92
2023-01-15T02:38:08.006Z,64.61
2023-01-15T02:40:39.995Z,64.70
2023-01-15T02:43:14.746Z,64.37
2023-01-15T02:45:49.666Z,64.31
2023-01-15T02:48:23.287Z,63.92
2023-01-15T02:51:21.498Z,64.13
2023-01-15T02:53:53.765Z,64.30
2023-01-15T02:56:29.368Z,64.01
2023-01-15T02:59:08.640Z,63.96
2023-01-15T03:01:50.485Z,64.24
2023-01-15T03:04:27.854Z,63.82
2023-01-15T03:07:39.340Z,63.95
2023-01-15T03:10:11.221Z,64.65
2023-01-15T03:13:05.700Z,64.71
2023-01-15T03:16:04.646Z,65.02
2023-01-15T03:18:43.678Z,64.91
2023-01-15T03:21:19.974Z,64.95
2023-01-15T03:23:55.269Z,65.12
2023-01-15T03:26:29.505Z,64.90
2023-01-15T03:29:01.416Z,64.78
2023-01-15T03:31:32.676Z,64.72
2023-01-15T03:34:02.591Z,64.76
2023-01-15T03:36:32.828Z,64.24
2023-01-15T03:39:05.387Z,64.47
2023-01-15T03:42:09.689Z,64.17
2023-01-15T03:45:14.872Z,64.39
2023-01-15T03:47:49.299Z,64.50
2023-01-15T03:50:21.492Z,64.41
2023-01-15T03:52:55.599Z,64.53
2023-01-15T03:55:39.363Z,64.60
2023-01-15T03:58:23.382Z,64.95
2023-01-15T04:00:56.463Z,64.66
2023-01-15T04:03:28.766Z,64.94
2023-01-15T04:06:03.831Z,64.83
2023-01-15T04:08:41.814Z,64.87
2023-01-15T04:11:12.179Z,64.65
2023-01-15T04:13:48.463Z,64.65
2023-01-15T04:16:32.829Z,64.78
2023-01-15T04:19:03.027Z,64.33
2023-01-15T04:21:35.972Z,64.55
2023-01-15T04:24:06.166Z,64.36
2023-01-15T04:26:36.238Z,64.66
2023-01-15T04:29:06.179Z,64.39
2023-01-15T04:31:38.092Z,64.40
2023-01-15T04:34:08.135Z,64.11
2023-01-15T04:36:38.114Z,64.13
2023-01-15T04:39:08.620Z,64.18
2023-01-15T04:41:56.857Z,64.37
2023-01-15T04:44:29.849Z,64.76
2023-01-15T04:47:02.156Z,64.91
2023-01-15T04:49:32.317Z,64.91
2023-01-15T04:52:02.457Z,64.92
2023-01-15T04:54:32.522Z,65.13
2023-01-15T04:57:02.442Z,64.79
2023-01-15T04:59:32.329Z,65.03
2023-01-15T05:02:05.981Z,64.75
2023-01-15T05:04:37.029Z,65.01
2023-01-15T05:07:07.813Z,64.61
2023-01-15T05:09:38.016Z,64.18
2023-01-15T05:12:08.660Z,64.74
2023-01-15T05:14:38.691Z,64.65
2023-01-15T05:17:08.594Z,64.93
2023-01-15T05:19:38.477Z,64.21
2023-01-15T05:22:08.341Z,64.76
2023-01-15T05:24:38.393Z,64.25
2023-01-15T05:27:08.368Z,64.66
2023-01-15T05:29:39.031Z,63.77
2023-01-15T05:32:09.718Z,64.03
2023-01-15T05:34:39.935Z,63.46
2023-01-15T05:37:09.882Z,64.41
2023-01-15T05:39:39.958Z,63.85
2023-01-15T05:42:10.150Z,63.93
2023-01-15T05:44:40.251Z,63.10
2023-01-15T05:47:13.092Z,63.27
2023-01-15T05:49:43.255Z,63.42
2023-01-15T05:52:13.197Z,63.07
2023-01-15T05:54:43.073Z,61.09
2023-01-15T05:57:15.258Z,61.18
2023-01-15T05:59:45.331Z,63.31
2023-01-15T06:02:15.223Z,62.82
2023-01-15T06:04:45.294Z,62.82
2023-01-15T06:07:15.152Z,61.08
2023-01-15T06:09:45.097Z,62.64
2023-01-15T06:12:14.982Z,62.45
2023-01-15T06:14:44.960Z,62.73
2023-01-15T06:17:14.871Z,62.75
2023-01-15T06:19:44.721Z,62.89
2023-01-15T06:22:14.625Z,62.46
2023-01-15T06:24:44.498Z,62.28
2023-01-15T06:27:14.549Z,59.83
2023-01-15T06:29:44.403Z,62.47
2023-01-15T06:32:14.473Z,61.88
2023-01-15T06:34:45.913Z,62.09
2023-01-15T06:37:16.314Z,61.56
2023-01-15T06:39:46.408Z,58.76
2023-01-15T06:42:34.660Z,60.61
2023-01-15T06:45:22.993Z,60.10
2023-01-15T06:47:53.019Z,60.41
2023-01-15T06:50:22.901Z,61.37
2023-01-15T06:52:52.823Z,58.82
2023-01-15T06:55:22.827Z,61.17
2023-01-15T06:57:52.748Z,60.28
2023-01-15T07:00:22.997Z,60.61
2023-01-15T07:02:53.292Z,60.40
2023-01-15T07:05:23.439Z,60.71
2023-01-15T07:07:53.637Z,59.97
2023-01-15T07:10:23.788Z,60.74
2023-01-15T07:12:54.017Z,61.03
2023-01-15T07:15:24.095Z,59.38
2023-01-15T07:17:58.988Z,60.99
2023-01-15T07:20:29.072Z,59.60
2023-01-15T07:22:58.934Z,59.91
2023-01-15T07:25:28.794Z,60.07
2023-01-15T07:27:58.694Z,59.83
2023-01-15T07:30:28.614Z,59.54
2023-01-15T07:32:59.643Z,59.36
2023-01-15T07:35:29.721Z,58.86
2023-01-15T07:38:00.023Z,58.37
2023-01-15T07:40:30.043Z,58.84
2023-01-15T07:43:18.334Z,59.95
2023-01-15T07:46:06.792Z,59.76
2023-01-15T07:48:56.227Z,59.70
2023-01-15T07:51:26.201Z,59.97
2023-01-15T07:53:57.196Z,59.43
2023-01-15T07:56:27.297Z,59.69
2023-01-15T07:58:57.172Z,60.07
2023-01-15T08:01:27.223Z,59.97
2023-01-15T08:03:57.201Z,59.86
2023-01-15T08:06:27.092Z,59.22
2023-01-15T08:08:56.982Z,59.75
2023-01-15T08:11:44.837Z,59.72
2023-01-15T08:14:33.274Z,59.65
2023-01-15T08:17:03.500Z,59.56
2023-01-15T08:19:33.496Z,59.30
2023-01-15T08:22:03.710Z,59.24
2023-01-15T08:24:33.781Z,59.09
2023-01-15T08:27:03.618Z,59.15
2023-01-15T08:29:33.593Z,59.33
2023-01-15T08:32:03.704Z,59.72
2023-01-15T08:34:33.759Z,59.74
2023-01-15T08:37:03.737Z,59.47
2023-01-15T08:39:33.960Z,59.17
2023-01-15T08:42:04.363Z,59.09
2023-01-15T08:44:35.262Z,59.04
2023-01-15T08:47:05.373Z,58.74
2023-01-15T08:49:35.215Z,59.20
2023-01-15T08:52:05.669Z,58.40
2023-01-15T08:54:36.827Z,58.37
2023-01-15T08:57:06.875Z,58.45
2023-01-15T08:59:36.731Z,58.31
2023-01-15T09:02:06.930Z,58.83
2023-01-15T09:04:37.109Z,58.90
2023-01-15T09:07:07.247Z,58.97
2023-01-15T09:09:37.514Z,58.73
2023-01-15T09:12:07.615Z,57.64
2023-01-15T09:14:56.079Z,57.84
2023-01-15T09:17:27.494Z,57.48
2023-01-15T09:19:57.374Z,57.35
2023-01-15T09:22:30.343Z,58.57
2023-01-15T09:25:00.737Z,58.51
2023-01-15T09:27:31.143Z,58.50
2023-01-15T09:30:01.210Z,58.87
2023-01-15T09:32:31.119Z,58.94
2023-01-15T09:35:01.014Z,59.09
2023-01-15T09:37:31.129Z,58.39
2023-01-15T09:40:01.008Z,58.16
2023-01-15T09:42:53.746Z,57.59
2023-01-15T09:45:48.361Z,57.84
2023-01-15T09:48:48.978Z,58.59
2023-01-15T09:51:22.329Z,58.91
2023-01-15T09:54:08.276Z,58.30
2023-01-15T09:56:40.281Z,58.53
2023-01-15T09:59:34.804Z,58.58
2023-01-15T10:02:23.147Z,58.89
2023-01-15T10:05:00.353Z,58.83
2023-01-15T10:08:00.970Z,58.89
2023-01-15T10:10:39.659Z,58.63
2023-01-15T10:13:33.603Z,58.28
2023-01-15T10:16:04.150Z,58.34
2023-01-15T10:18:34.386Z,58.74
2023-01-15T10:21:13.246Z,58.71
2023-01-15T10:23:58.930Z,58.17
2023-01-15T10:26:34.976Z,57.89
2023-01-15T10:29:24.931Z,57.72
2023-01-15T10:32:08.490Z,56.80
2023-01-15T10:35:10.389Z,56.28
2023-01-15T10:37:55.419Z,56.22
2023-01-15T10:40:40.308Z,56.08
2023-01-15T10:43:32.229Z,56.21
2023-01-15T10:46:20.719Z,56.38
2023-01-15T10:48:56.984Z,55.98
2023-01-15T10:51:43.531Z,56.31
2023-01-15T10:54:34.731Z,55.60
2023-01-15T10:57:21.236Z,56.43
2023-01-15T10:59:59.705Z,56.49
2023-01-15T11:02:51.715Z,56.18
2023-01-15T11:05:23.648Z,55.97
2023-01-15T11:08:36.667Z,55.95
2023-01-15T11:10:46.299Z,54.66
2023-01-15T11:13:46.025Z,54.89
2023-01-15T11:16:44.393Z,54.58
2023-01-15T11:19:39.899Z,55.33
2023-01-15T11:22:13.833Z,55.88
2023-01-15T11:24:53.492Z,55.93
2023-01-15T11:27:35.524Z,55.99
2023-01-15T11:30:08.217Z,56.50
2023-01-15T11:32:40.350Z,56.55
2023-01-15T11:35:19.277Z,56.55
2023-01-15T11:37:49.367Z,56.56
2023-01-15T11:40:25.647Z,56.66
2023-01-15T11:43:14.079Z,56.38
2023-01-15T11:46:12.443Z,56.41
2023-01-15T11:49:09.802Z,56.54
2023-01-15T11:51:51.231Z,56.48
2023-01-15T11:54:21.245Z,56.58
2023-01-15T11:56:51.726Z,56.62
2023-01-15T11:59:23.073Z,57.13
2023-01-15T12:02:00.260Z,56.73
2023-01-15T12:04:37.200Z,57.29
2023-01-15T12:07:15.302Z,57.30
2023-01-15T12:10:42.476Z,57.01
2023-01-15T12:13:30.860Z,57.02
2023-01-15T12:16:33.340Z,57.75
2023-01-15T12:19:34.421Z,57.94
2023-01-15T12:22:13.784Z,57.82
2023-01-15T12:24:49.767Z,57.66
2023-01-15T12:27:56.311Z,58.14
2023-01-15T12:30:31.796Z,58.46
2023-01-15T12:33:07.884Z,58.43
2023-01-15T12:37:40.242Z,58.38
2023-01-15T12:40:28.727Z,58.72
2023-01-15T12:43:18.297Z,58.71
2023-01-15T12:45:55.788Z,58.54
2023-01-15T12:48:49.268Z,58.60
2023-01-15T12:51:29.149Z,58.15
2023-01-15T12:54:06.631Z,58.11
2023-01-15T12:56:50.724Z,58.46
2023-01-15T12:59:34.621Z,58.44
2023-01-15T13:02:14.496Z,58.19
2023-01-15T13:04:59.585Z,58.09
2023-01-15T13:07:46.063Z,57.75
2023-01-15T13:10:22.010Z,57.62
2023-01-15T13:12:52.367Z,57.78
2023-01-15T13:15:28.644Z,57.54
2023-01-15T13:18:24.099Z,57.80
2023-01-15T13:20:57.421Z,57.27
2023-01-15T13:23:50.777Z,57.38
2023-01-15T13:26:47.576Z,57.12
2023-01-15T13:29:32.685Z,57.58
2023-01-15T13:32:27.860Z,57.37
2023-01-15T13:35:19.609Z,56.65
2023-01-15T13:37:55.909Z,56.35
2023-01-15T13:40:30.849Z,56.25
2023-01-15T13:43:01.569Z,56.35
2023-01-15T13:45:41.601Z,56.18
2023-01-15T13:48:19.732Z,56.09
2023-01-15T13:51:01.331Z,56.25
2023-01-15T13:53:38.950Z,56.11
2023-01-15T13:56:17.543Z,56.19
2023-01-15T13:59:02.473Z,56.33
2023-01-15T14:01:39.780Z,56.64
2023-01-15T14:04:20.217Z,56.67
2023-01-15T14:06:55.333Z,56.51
2023-01-15T14:09:25.480Z,56.53
2023-01-15T14:12:18.227Z,56.58
2023-01-15T14:14:54.738Z,56.19
2023-01-15T14:17:46.561Z,55.73
2023-01-15T14:20:49.508Z,55.87
2023-01-15T14:23:29.485Z,56.71
2023-01-15T14:26:27.751Z,56.84
2023-01-15T14:29:29.977Z,57.11
2023-01-15T14:32:09.827Z,56.99
2023-01-15T14:37:47.693Z,57.18
2023-01-15T14:40:32.039Z,57.21
2023-01-15T14:43:10.561Z,57.22
2023-01-15T14:45:47.192Z,57.08
2023-01-15T14:48:38.813Z,56.92
2023-01-15T14:51:17.292Z,57.10
2023-01-15T14:53:57.745Z,57.15
2023-01-15T14:56:56.329Z,57.24
2023-01-15T14:59:33.836Z,57.11
2023-01-15T15:02:33.575Z,57.00
2023-01-15T15:05:04.994Z,57.08
2023-01-15T15:07:42.869Z,57.03
2023-01-15T15:10:22.331Z,57.37
2023-01-15T15:13:35.824Z,57.51
2023-01-15T15:16:20.328Z,57.20
2023-01-15T15:19:05.290Z,57.26
2023-01-15T15:21:45.467Z,56.90
2023-01-15T15:24:30.419Z,56.93
2023-01-15T15:27:11.136Z,56.72
2023-01-15T15:29:41.306Z,56.59
2023-01-15T15:32:23.429Z,56.37
2023-01-15T15:34:56.238Z,56.50
2023-01-15T15:37:29.676Z,56.39
2023-01-15T15:40:18.914Z,56.57
2023-01-15T15:43:37.321Z,56.23
2023-01-15T15:46:26.419Z,56.29
2023-01-15T15:49:00.719Z,56.32
2023-01-15T15:51:39.104Z,56.21
2023-01-15T15:54:21.375Z,56.23
2023-01-15T15:57:11.962Z,55.97
2023-01-15T15:59:47.085Z,56.17
2023-01-15T16:02:29.311Z,56.09
2023-01-15T16:05:03.682Z,56.22
2023-01-15T16:07:36.780Z,55.86
2023-01-15T16:10:16.750Z,55.99
2023-01-15T16:12:59.094Z,56.00
2023-01-15T16:15:50.839Z,55.94
2023-01-15T16:18:37.078Z,56.26
2023-01-15T16:21:07.772Z,56.31
2023-01-15T16:23:38.099Z,56.48
2023-01-15T16:26:13.957Z,56.35
2023-01-15T16:28:49.552Z,56.68
2023-01-15T16:31:21.515Z,56.64
2023-01-15T16:34:02.157Z,56.50
2023-01-15T16:36:44.769Z,56.56
2023-01-15T16:39:26.090Z,56.60
2023-01-15T16:42:01.621Z,56.58
2023-01-15T16:44:39.787Z,56.29
2023-01-15T16:47:10.127Z,56.12
2023-01-15T16:49:40.323Z,56.12
2023-01-15T16:52:48.653Z,56.43
2023-01-15T16:55:36.790Z,56.38
2023-01-15T16:58:15.761Z,56.63
2023-01-15T17:00:58.085Z,56.44
2023-01-15T17:03:30.390Z,56.34
2023-01-15T17:06:14.342Z,56.45
2023-01-15T17:08:51.634Z,56.55
2023-01-15T17:11:35.654Z,56.58
2023-01-15T17:14:42.372Z,56.42
2023-01-15T17:17:25.910Z,56.55
2023-01-15T17:19:59.256Z,56.64
2023-01-15T17:22:33.002Z,56.70
2023-01-15T17:25:04.130Z,56.61
2023-01-15T17:27:34.370Z,56.79
2023-01-15T17:30:06.509Z,56.85
2023-01-15T17:32:38.631Z,56.81
2023-01-15T17:35:10.210Z,56.88
2023-01-15T17:37:40.396Z,56.56
2023-01-15T17:40:11.551Z,56.54
2023-01-15T17:42:41.671Z,56.56
2023-01-15T17:45:26.522Z,56.53
2023-01-15T17:47:56.945Z,56.48
2023-01-15T17:50:27.666Z,56.70
2023-01-15T17:52:57.894Z,56.65
2023-01-15T17:55:46.424Z,56.69
2023-01-15T17:58:35.738Z,56.78
2023-01-15T18:01:33.033Z,56.53
2023-01-15T18:04:22.230Z,56.89
2023-01-15T18:06:56.820Z,56.84
2023-01-15T18:09:27.201Z,57.12
2023-01-15T18:11:57.195Z,57.02
2023-01-15T18:14:27.470Z,56.92
2023-01-15T18:16:57.676Z,57.13
2023-01-15T18:19:27.908Z,57.11
2023-01-15T18:21:58.097Z,56.93
2023-01-15T18:24:28.241Z,57.22
2023-01-15T18:26:58.737Z,57.20
2023-01-15T18:29:28.942Z,57.50
2023-01-15T18:31:59.292Z,57.36
2023-01-15T18:34:30.070Z,57.59
2023-01-15T18:37:00.320Z,57.48
2023-01-15T18:39:30.492Z,57.78
2023-01-15T18:42:00.580Z,57.90
2023-01-15T18:44:48.817Z,57.66
2023-01-15T18:47:19.831Z,57.74
2023-01-15T18:49:49.943Z,57.82
2023-01-15T18:52:38.769Z,57.89
2023-01-15T18:55:09.259Z,57.99
2023-01-15T18:57:39.189Z,57.79
2023-01-15T19:00:09.980Z,58.04
2023-01-15T19:02:40.192Z,57.98
2023-01-15T19:05:10.675Z,58.02
2023-01-15T19:07:42.291Z,57.99
2023-01-15T19:10:14.899Z,58.00
2023-01-15T19:12:46.797Z,58.14
2023-01-15T19:15:40.075Z,58.12
2023-01-15T19:18:31.842Z,58.03
2023-01-15T19:21:02.220Z,58.11
2023-01-15T19:23:32.262Z,58.02
2023-01-15T19:26:03.400Z,57.99
2023-01-15T19:28:33.483Z,58.44
2023-01-15T19:31:21.422Z,58.28
2023-01-15T19:33:51.781Z,58.36
2023-01-15T19:36:22.104Z,58.55
2023-01-15T19:38:51.988Z,58.70
2023-01-15T19:41:40.225Z,58.81
2023-01-15T19:44:30.989Z,58.96
2023-01-15T19:47:19.390Z,58.95
2023-01-15T19:50:08.119Z,58.65
2023-01-15T19:52:38.219Z,58.77
2023-01-15T19:55:12.835Z,58.81
2023-01-15T19:57:45.270Z,59.06
2023-01-15T20:00:19.375Z,59.13
2023-01-15T20:02:49.467Z,58.93
2023-01-15T20:05:19.878Z,58.92
2023-01-15T20:07:50.222Z,59.17
2023-01-15T20:10:22.752Z,59.14
2023-01-15T20:13:12.039Z,59.22
2023-01-15T20:15:44.897Z,59.37
2023-01-15T20:18:16.026Z,59.19
2023-01-15T20:20:46.138Z,59.16
2023-01-15T20:23:16.734Z,59.01
2023-01-15T20:25:51.924Z,58.98
2023-01-15T20:28:23.160Z,59.30
2023-01-15T20:30:55.615Z,58.88
2023-01-15T20:33:26.606Z,59.32
2023-01-15T20:35:57.175Z,59.07
2023-01-15T20:38:27.457Z,59.34
2023-01-15T20:41:17.196Z,59.28
2023-01-15T20:44:05.609Z,59.55
2023-01-15T20:46:35.765Z,59.63
2023-01-15T20:49:24.262Z,59.50
2023-01-15T20:51:54.983Z,59.51
2023-01-15T20:54:25.781Z,59.33
2023-01-15T20:56:55.908Z,59.63
2023-01-15T20:59:25.843Z,59.75
2023-01-15T21:01:55.816Z,59.48
2023-01-15T21:04:25.854Z,59.41
2023-01-15T21:06:55.986Z,59.49
2023-01-15T21:09:26.022Z,59.65
2023-01-15T21:11:55.973Z,59.56
2023-01-15T21:14:25.927Z,59.64
2023-01-15T21:16:55.838Z,59.80
2023-01-15T21:19:26.054Z,59.80
2023-01-15T21:21:56.142Z,59.70
2023-01-15T21:24:26.151Z,59.92
2023-01-15T21:26:56.445Z,59.65
2023-01-15T21:29:26.524Z,59.95
2023-01-15T21:31:56.597Z,59.95
2023-01-15T21:34:26.782Z,60.02
2023-01-15T21:36:56.674Z,60.03
2023-01-15T21:39:27.001Z,60.10
2023-01-15T21:42:15.536Z,59.92
2023-01-15T21:44:45.875Z,60.05
2023-01-15T21:47:18.581Z,59.89
2023-01-15T21:49:48.809Z,60.02
2023-01-15T21:52:23.031Z,60.07
2023-01-15T21:54:54.272Z,60.11
2023-01-15T21:57:24.641Z,59.98
2023-01-15T21:59:54.815Z,60.11
2023-01-15T22:02:25.633Z,60.13
2023-01-15T22:04:55.851Z,60.15
2023-01-15T22:07:25.802Z,60.02
2023-01-15T22:09:55.776Z,60.19
2023-01-15T22:12:25.878Z,60.02
2023-01-15T22:14:57.590Z,60.19
2023-01-15T22:17:27.678Z,60.21
2023-01-15T22:19:57.618Z,60.22
2023-01-15T22:22:36.028Z,60.39
2023-01-15T22:25:07.756Z,60.69
2023-01-15T22:27:42.853Z,61.21
2023-01-15T22:30:15.835Z,60.96
2023-01-15T22:32:47.069Z,61.11
2023-01-15T22:35:17.057Z,61.03
2023-01-15T22:37:46.940Z,61.10
2023-01-15T22:40:17.100Z,61.05
2023-01-15T22:42:47.165Z,61.16
2023-01-15T22:45:17.625Z,61.13
2023-01-15T22:47:48.701Z,61.26
2023-01-15T22:50:19.280Z,61.28
2023-01-15T22:52:49.477Z,61.47
2023-01-15T22:56:34.686Z,61.53
2023-01-15T22:59:04.747Z,61.56
2023-01-15T23:01:34.869Z,61.75
2023-01-15T23:04:04.992Z,62.16
2023-01-15T23:06:34.903Z,62.42
2023-01-15T23:09:05.846Z,62.65
2023-01-15T23:11:35.886Z,62.75
2023-01-15T23:14:06.197Z,62.78
2023-01-15T23:16:36.686Z,62.46
2023-01-15T23:19:09.541Z,62.82
2023-01-15T23:21:40.658Z,62.74
2023-01-15T23:24:11.539Z,62.87
2023-01-15T23:26:41.929Z,62.75
2023-01-15T23:29:11.952Z,62.97
2023-01-15T23:31:41.818Z,63.04
2023-01-15T23:34:12.789Z,63.19
2023-01-15T23:36:42.847Z,63.41
2023-01-15T23:39:12.821Z,63.78
2023-01-15T23:42:00.964Z,63.79
2023-01-15T23:44:50.229Z,63.99
2023-01-15T23:47:20.174Z,64.24
2023-01-15T23:49:50.132Z,64.21
2023-01-15T23:52:20.155Z,64.52
2023-01-15T23:54:50.207Z,64.54
2023-01-15T23:57:20.358Z,64.81
2023-01-15T23:59:50.220Z,64.67
